RYR85QU EYVI-EGSS
Flight info
| Callsign | RYR85QU |
|---|---|
| Flight time | N/A |
| Altitude | 36000 |
| Route | UPASI DCT TUNGA DCT SUWGI DCT GRUDA L29 ALUKA DCT POVEL DCT NIGUG DCT ODVIL DCT NOGRO M40 RINIS |
| Aircraft | B738/M-SDE2E3FGHIRWXY/LB1 |
Departure
| Time | 2026-04-30 22:47 |
|---|---|
| Airport | Vilnius International Airport (EYVI) |
Arrival
| Time | N/A |
|---|---|
| Airport | London Stansted Airport (EGSS) |
| Time | Latitude | Longitude | Altitude | Speed | Heading |
|---|---|---|---|---|---|
| 2026-04-30 22:33 | 54.64367 | 25.28549 | 646 ft | 0 kts | 357° |
| 2026-04-30 22:44 | 54.64402 | 25.28576 | 648 ft | 4 kts | 60° |
| 2026-04-30 22:45 | 54.64539 | 25.28699 | 653 ft | 8 kts | 78° |
| 2026-04-30 22:45 | 54.64554 | 25.28923 | 656 ft | 11 kts | 108° |
| 2026-04-30 22:46 | 54.64489 | 25.29159 | 656 ft | 11 kts | 116° |
| 2026-04-30 22:47 | 54.63076 | 25.28341 | 618 ft | 160 kts | 202° |
| 2026-04-30 22:47 | 54.60902 | 25.26868 | 1842 ft | 175 kts | 205° |
| 2026-04-30 22:48 | 54.58274 | 25.25037 | 2449 ft | 232 kts | 204° |
| 2026-04-30 22:49 | 54.53487 | 25.21709 | 4485 ft | 258 kts | 212° |
| 2026-04-30 22:49 | 54.51390 | 25.13199 | 6769 ft | 271 kts | 261° |
| 2026-04-30 22:50 | 54.49627 | 25.00099 | 10201 ft | 280 kts | 262° |
| 2026-04-30 22:51 | 54.48687 | 24.93579 | 11409 ft | 301 kts | 262° |
| 2026-04-30 22:51 | 54.47592 | 24.86041 | 11864 ft | 347 kts | 261° |
| 2026-04-30 22:52 | 54.46984 | 24.81962 | 12436 ft | 356 kts | 261° |
| 2026-04-30 22:52 | 54.45726 | 24.73635 | 13941 ft | 364 kts | 261° |
| 2026-04-30 22:53 | 54.44431 | 24.65085 | 15216 ft | 375 kts | 262° |
| 2026-04-30 22:53 | 54.43093 | 24.56283 | 16461 ft | 386 kts | 262° |
| 2026-04-30 22:53 | 54.42407 | 24.51786 | 17072 ft | 392 kts | 261° |
| 2026-04-30 22:54 | 54.41002 | 24.42607 | 18299 ft | 403 kts | 261° |
| 2026-04-30 22:55 | 54.38813 | 24.28414 | 19987 ft | 416 kts | 262° |
| 2026-04-30 22:55 | 54.37184 | 24.18770 | 21078 ft | 426 kts | 260° |
| 2026-04-30 22:56 | 54.35417 | 24.08985 | 22176 ft | 432 kts | 260° |
| 2026-04-30 22:56 | 54.32736 | 23.94103 | 23712 ft | 444 kts | 260° |
| 2026-04-30 22:57 | 54.30906 | 23.83925 | 24585 ft | 450 kts | 260° |
| 2026-04-30 22:57 | 54.29042 | 23.73605 | 25404 ft | 457 kts | 260° |
| 2026-04-30 22:58 | 54.27139 | 23.63134 | 26190 ft | 464 kts | 260° |
| 2026-04-30 22:59 | 54.24217 | 23.47163 | 27270 ft | 475 kts | 260° |
| 2026-04-30 22:59 | 54.20509 | 23.31314 | 28477 ft | 491 kts | 246° |